Time;durP1;ratioP1;P1;durP2;ratioP2;P2;SDS_P1;SDS_P2;PMS_P1;PMS_P2;Temp;Humidity;BMP_temperature;BMP_pressure;BME280_temperature;BME280_humidity;BME280_pressure;Samples;Min_cycle;Max_cycle;Signal;HPM_P1;HPM_P2
2021/05/31 00:00:28;;;;;;;4.40;4.00;;;11.80;99.90;;;;;;5093772;28;20174;-58
2021/05/31 00:02:54;;;;;;;5.20;4.43;;;11.80;99.90;;;;;;5093480;28;20212;-56
2021/05/31 00:05:24;;;;;;;4.73;4.23;;;11.70;99.90;;;;;;5094286;28;20170;-53
2021/05/31 00:07:50;;;;;;;4.57;4.17;;;11.70;99.90;;;;;;5092978;28;20208;-59
2021/05/31 00:10:15;;;;;;;4.83;4.43;;;11.60;99.90;;;;;;5093398;28;20174;-51
2021/05/31 00:12:41;;;;;;;5.13;4.47;;;11.50;99.90;;;;;;5093465;28;20209;-52
2021/05/31 00:15:08;;;;;;;4.80;4.30;;;11.50;99.90;;;;;;5093010;28;20219;-51
2021/05/31 00:17:35;;;;;;;4.50;4.10;;;11.40;99.90;;;;;;5093582;28;20209;-60
2021/05/31 00:20:01;;;;;;;4.90;4.40;;;11.50;99.90;;;;;;5092408;28;20190;-58
2021/05/31 00:22:27;;;;;;;4.40;4.00;;;11.50;99.90;;;;;;5093391;28;20693;-53
2021/05/31 00:24:52;;;;;;;4.80;4.37;;;11.40;99.90;;;;;;5091704;28;20166;-61
2021/05/31 00:27:18;;;;;;;5.43;4.07;;;11.40;99.90;;;;;;5092701;28;20209;-61
2021/05/31 00:29:44;;;;;;;5.20;4.63;;;11.40;99.90;;;;;;5093302;28;20177;-53
2021/05/31 00:32:10;;;;;;;4.40;4.00;;;11.40;99.90;;;;;;5093209;28;20173;-55
2021/05/31 00:34:37;;;;;;;4.67;4.27;;;11.30;99.90;;;;;;5093410;28;20197;-58
2021/05/31 00:37:04;;;;;;;6.53;3.90;;;11.30;99.90;;;;;;5093342;28;20190;-61
2021/05/31 00:39:29;;;;;;;4.90;4.40;;;11.30;99.90;;;;;;5093252;28;20196;-61
2021/05/31 00:41:55;;;;;;;4.67;4.20;;;11.20;99.90;;;;;;5093114;28;20533;-52
2021/05/31 00:44:22;;;;;;;4.97;4.17;;;11.20;99.90;;;;;;5095279;28;20181;-52
2021/05/31 00:46:50;;;;;;;4.10;3.70;;;11.10;99.90;;;;;;5097218;28;20224;-61
2021/05/31 00:49:22;;;;;;;4.50;4.07;;;11.10;99.90;;;;;;5096927;28;20173;-58
2021/05/31 00:51:48;;;;;;;3.93;3.63;;;11.10;99.90;;;;;;5096936;28;20170;-61
2021/05/31 00:54:14;;;;;;;4.40;4.00;;;11.10;99.90;;;;;;5096941;28;20232;-60
2021/05/31 00:56:41;;;;;;;5.07;4.43;;;11.00;99.90;;;;;;5096818;28;20218;-56
2021/05/31 00:59:09;;;;;;;5.07;4.20;;;11.00;99.90;;;;;;5097356;28;20173;-53
2021/05/31 01:01:35;;;;;;;4.27;3.87;;;11.00;99.90;;;;;;5096218;28;20626;-60
2021/05/31 01:04:01;;;;;;;5.10;4.60;;;10.90;99.90;;;;;;5097268;28;20197;-61
2021/05/31 01:06:32;;;;;;;5.90;4.40;;;10.90;99.90;;;;;;5096453;28;20190;-55
2021/05/31 01:09:28;;;;;;;4.87;4.17;;;10.80;99.90;;;;;;5096709;28;20238;-60
2021/05/31 01:12:10;;;;;;;5.03;4.43;;;10.80;99.90;;;;;;5096571;28;20188;-60
2021/05/31 01:14:45;;;;;;;4.80;4.30;;;10.70;99.90;;;;;;5096202;28;20189;-61
2021/05/31 01:17:28;;;;;;;5.33;4.40;;;10.70;99.90;;;;;;5096628;28;20193;-60
2021/05/31 01:20:23;;;;;;;4.60;4.20;;;10.70;99.90;;;;;;5096420;28;20165;-55
2021/05/31 01:22:51;;;;;;;4.70;4.30;;;10.70;99.90;;;;;;5079963;28;20232;-61
2021/05/31 01:25:31;;;;;;;5.07;4.20;;;10.60;99.90;;;;;;5096336;28;20173;-57
2021/05/31 01:28:12;;;;;;;4.30;3.90;;;10.60;99.90;;;;;;5096178;28;20185;-61
2021/05/31 01:30:43;;;;;;;5.37;4.60;;;10.50;99.90;;;;;;5095976;28;20169;-57
2021/05/31 01:33:15;;;;;;;4.40;4.00;;;10.50;99.90;;;;;;5096497;28;20189;-51
2021/05/31 01:35:42;;;;;;;4.80;4.27;;;10.50;99.90;;;;;;5096300;28;20178;-60
2021/05/31 01:38:09;;;;;;;5.10;4.23;;;10.30;99.90;;;;;;5086576;28;20221;-60
2021/05/31 01:40:35;;;;;;;4.30;3.90;;;10.30;99.90;;;;;;5074377;28;20174;-55
2021/05/31 01:43:03;;;;;;;5.73;4.40;;;10.30;99.90;;;;;;5076131;28;20174;-57
2021/05/31 01:45:29;;;;;;;4.47;4.07;;;10.30;99.90;;;;;;5075643;28;20257;-59
2021/05/31 01:47:55;;;;;;;6.03;4.30;;;10.20;99.90;;;;;;5075437;28;20230;-52
2021/05/31 01:50:22;;;;;;;4.17;3.80;;;10.10;99.90;;;;;;5075346;28;20228;-51
2021/05/31 01:52:49;;;;;;;4.77;4.27;;;10.10;99.90;;;;;;5075151;28;20185;-61
2021/05/31 01:55:15;;;;;;;5.43;4.20;;;10.00;99.90;;;;;;5074544;28;20262;-54
2021/05/31 01:57:46;;;;;;;4.43;4.03;;;10.00;99.90;;;;;;5075268;28;20202;-59
2021/05/31 02:00:15;;;;;;;4.80;4.30;;;10.00;99.90;;;;;;5075710;28;20265;-54
2021/05/31 02:02:41;;;;;;;4.60;4.20;;;10.00;99.90;;;;;;5075010;28;20174;-58
2021/05/31 02:05:10;;;;;;;4.10;3.70;;;10.00;99.90;;;;;;5075519;28;20209;-60
2021/05/31 02:07:39;;;;;;;8.43;4.17;;;10.00;99.90;;;;;;5075312;28;20641;-52
2021/05/31 02:10:08;;;;;;;5.50;4.17;;;9.90;99.90;;;;;;5075090;28;20223;-61
2021/05/31 02:12:50;;;;;;;4.87;4.37;;;9.90;99.90;;;;;;5074630;28;20236;-60
2021/05/31 02:15:24;;;;;;;4.40;3.97;;;9.90;99.90;;;;;;5075070;28;20181;-61
2021/05/31 02:18:13;;;;;;;4.63;4.10;;;9.80;99.90;;;;;;5074803;28;20194;-57
2021/05/31 02:20:41;;;;;;;5.27;4.20;;;9.80;99.90;;;;;;5074909;28;20261;-59
2021/05/31 02:23:08;;;;;;;5.47;4.50;;;9.80;99.90;;;;;;5075546;28;20183;-52
2021/05/31 02:25:35;;;;;;;5.30;4.37;;;9.80;99.90;;;;;;5075299;28;20252;-61
2021/05/31 02:28:01;;;;;;;4.63;4.23;;;9.80;99.90;;;;;;5074812;28;20190;-60
2021/05/31 02:30:27;;;;;;;6.37;4.47;;;9.70;99.90;;;;;;5075032;28;20198;-59
2021/05/31 02:33:01;;;;;;;5.57;4.40;;;9.70;99.90;;;;;;5074274;28;20231;-60
2021/05/31 02:35:31;;;;;;;6.57;4.43;;;9.70;99.90;;;;;;5075131;28;20181;-58
2021/05/31 02:37:58;;;;;;;5.27;4.43;;;9.60;99.90;;;;;;5074441;28;20206;-53
2021/05/31 02:40:25;;;;;;;5.03;4.53;;;9.50;99.90;;;;;;5074823;28;20163;-51
2021/05/31 02:42:56;;;;;;;6.80;4.10;;;9.60;99.90;;;;;;5074678;28;20665;-53
2021/05/31 02:45:23;;;;;;;4.97;4.47;;;9.50;99.90;;;;;;5074295;28;20190;-60
2021/05/31 02:47:53;;;;;;;5.33;4.30;;;9.50;99.90;;;;;;5074360;28;20689;-60
2021/05/31 02:50:19;;;;;;;5.50;4.20;;;9.40;99.90;;;;;;5074083;28;20167;-61
2021/05/31 02:52:45;;;;;;;6.90;4.60;;;9.40;99.90;;;;;;5074406;28;20201;-51
2021/05/31 02:55:13;;;;;;;4.77;4.27;;;9.40;99.90;;;;;;5074313;28;20265;-54
2021/05/31 02:57:39;;;;;;;5.97;4.10;;;9.40;99.90;;;;;;5072903;28;20230;-56
2021/05/31 03:00:07;;;;;;;5.40;4.70;;;9.40;99.90;;;;;;5074021;28;20237;-51
2021/05/31 03:02:33;;;;;;;4.93;4.43;;;9.30;99.90;;;;;;5073878;28;20541;-59
2021/05/31 03:04:59;;;;;;;8.33;4.43;;;9.30;99.90;;;;;;5074978;28;20621;-52
2021/05/31 03:07:24;;;;;;;7.17;4.57;;;9.30;99.90;;;;;;5074382;28;20198;-53
2021/05/31 03:09:50;;;;;;;5.97;4.53;;;9.30;99.90;;;;;;5074133;28;20274;-59
2021/05/31 03:12:15;;;;;;;6.00;4.33;;;9.30;99.90;;;;;;5074137;28;20249;-58
2021/05/31 03:14:41;;;;;;;4.77;4.33;;;9.30;99.90;;;;;;5074008;28;20595;-54
2021/05/31 03:17:07;;;;;;;4.57;4.17;;;9.30;99.90;;;;;;5074081;28;20198;-51
2021/05/31 03:19:32;;;;;;;5.17;4.40;;;9.30;99.90;;;;;;5073831;28;20186;-51
2021/05/31 03:21:58;;;;;;;4.90;4.40;;;9.30;99.90;;;;;;5073734;28;20177;-51
2021/05/31 03:24:23;;;;;;;4.30;3.90;;;9.20;99.90;;;;;;5074385;28;20178;-61
2021/05/31 03:26:49;;;;;;;5.10;4.60;;;9.20;99.90;;;;;;5073994;28;20225;-52
2021/05/31 03:29:14;;;;;;;5.07;4.40;;;9.20;99.90;;;;;;5074056;28;20272;-53
2021/05/31 03:31:40;;;;;;;7.00;4.60;;;9.20;99.90;;;;;;5073552;28;20182;-60
2021/05/31 03:34:05;;;;;;;6.00;4.47;;;9.20;99.90;;;;;;5074200;28;20194;-56
2021/05/31 03:36:31;;;;;;;5.67;4.03;;;9.20;99.90;;;;;;5073660;28;20194;-60
2021/05/31 03:38:56;;;;;;;4.93;4.10;;;9.20;99.90;;;;;;5073748;28;20198;-60
2021/05/31 03:41:22;;;;;;;4.57;4.17;;;9.20;99.90;;;;;;5073634;28;20257;-58
2021/05/31 03:43:47;;;;;;;4.40;4.00;;;9.20;99.90;;;;;;5074078;28;20239;-60
2021/05/31 03:46:13;;;;;;;5.57;4.40;;;9.20;99.90;;;;;;5073392;28;20637;-52
2021/05/31 03:48:39;;;;;;;4.53;4.03;;;9.20;99.90;;;;;;5074249;28;20201;-59
2021/05/31 03:51:12;;;;;;;5.73;4.30;;;9.30;99.90;;;;;;5073376;28;20224;-61
2021/05/31 03:53:39;;;;;;;5.77;4.40;;;9.30;99.90;;;;;;5073794;28;20543;-57
2021/05/31 03:56:06;;;;;;;5.13;4.43;;;9.30;99.90;;;;;;5073581;28;20185;-54
2021/05/31 03:58:32;;;;;;;4.87;4.10;;;9.30;99.90;;;;;;5073455;28;20623;-56
2021/05/31 04:00:58;;;;;;;5.20;4.50;;;9.30;99.90;;;;;;5073422;28;20177;-52
2021/05/31 04:03:25;;;;;;;5.07;4.00;;;9.30;99.90;;;;;;5074392;28;20190;-60
2021/05/31 04:11:34;;;;;;;6.23;4.17;;;9.40;99.90;;;;;;5085675;28;20569;-53
2021/05/31 04:14:08;;;;;;;4.73;4.10;;;9.30;99.90;;;;;;5093596;28;20286;-57
2021/05/31 04:16:35;;;;;;;4.83;4.20;;;9.30;99.90;;;;;;5092429;28;20825;-61
2021/05/31 04:19:01;;;;;;;7.03;4.67;;;9.40;99.90;;;;;;5095459;28;20616;-54
2021/05/31 04:21:27;;;;;;;4.63;4.03;;;9.50;99.90;;;;;;5097584;28;20178;-58
2021/05/31 04:23:53;;;;;;;5.93;4.03;;;9.50;99.90;;;;;;5097255;28;20189;-58
2021/05/31 04:26:19;;;;;;;5.13;4.37;;;9.60;99.90;;;;;;5097049;28;20193;-55
2021/05/31 04:28:45;;;;;;;4.60;4.20;;;9.60;99.90;;;;;;5097223;28;20190;-56
2021/05/31 04:31:10;;;;;;;4.77;4.27;;;9.70;99.90;;;;;;5097082;28;20533;-59
2021/05/31 04:33:36;;;;;;;5.03;4.27;;;9.80;99.90;;;;;;5097335;28;20213;-61
2021/05/31 04:36:02;;;;;;;4.67;4.27;;;9.80;99.90;;;;;;5097309;28;20181;-51
2021/05/31 04:38:28;;;;;;;5.10;3.73;;;9.90;99.90;;;;;;5096736;28;20201;-58
2021/05/31 04:40:54;;;;;;;4.87;4.23;;;10.00;99.90;;;;;;5097484;28;20498;-61
2021/05/31 04:43:19;;;;;;;5.10;4.60;;;10.00;99.90;;;;;;5096914;28;20303;-61
2021/05/31 04:45:46;;;;;;;5.53;3.90;;;10.10;99.90;;;;;;5097009;28;20635;-55
2021/05/31 04:48:12;;;;;;;5.23;4.37;;;10.10;99.90;;;;;;5096505;28;20863;-55
2021/05/31 04:50:38;;;;;;;4.37;3.97;;;10.10;99.90;;;;;;5097348;28;20256;-61
2021/05/31 04:53:04;;;;;;;4.30;3.83;;;10.20;99.90;;;;;;5097112;28;20205;-60
2021/05/31 04:55:29;;;;;;;4.60;4.10;;;10.30;99.90;;;;;;5097505;28;20178;-59
2021/05/31 04:57:55;;;;;;;4.27;3.87;;;10.40;99.90;;;;;;5096905;28;20196;-61
2021/05/31 05:00:21;;;;;;;4.30;3.90;;;10.50;99.90;;;;;;5096287;28;20216;-57
2021/05/31 05:02:46;;;;;;;4.60;4.00;;;10.60;99.90;;;;;;5096521;28;20260;-56
2021/05/31 05:05:13;;;;;;;5.40;4.30;;;10.70;99.90;;;;;;5096994;28;20205;-53
2021/05/31 05:07:45;;;;;;;5.60;4.07;;;10.80;99.90;;;;;;5096067;28;20220;-62
2021/05/31 05:10:17;;;;;;;5.93;4.23;;;10.90;99.90;;;;;;5096742;28;20162;-54
2021/05/31 05:12:45;;;;;;;4.30;3.90;;;11.00;99.90;;;;;;5096307;28;20621;-52
2021/05/31 05:15:11;;;;;;;4.47;3.70;;;11.10;99.90;;;;;;5096027;28;20170;-58
2021/05/31 05:17:37;;;;;;;6.17;3.97;;;11.10;99.90;;;;;;5096709;28;20209;-58
2021/05/31 05:20:04;;;;;;;5.30;3.90;;;11.20;99.90;;;;;;5096082;28;20178;-61
2021/05/31 05:22:30;;;;;;;4.13;3.80;;;11.30;99.90;;;;;;5096116;28;20178;-55
2021/05/31 05:24:56;;;;;;;4.97;4.17;;;11.20;99.90;;;;;;5096145;28;20182;-53
2021/05/31 05:27:22;;;;;;;4.00;3.63;;;11.20;99.90;;;;;;5091910;28;20208;-57
2021/05/31 05:29:47;;;;;;;5.37;4.77;;;11.20;99.90;;;;;;5089853;28;20177;-53
2021/05/31 05:32:13;;;;;;;5.70;4.60;;;11.30;99.90;;;;;;5094705;28;20564;-61
2021/05/31 05:34:38;;;;;;;4.63;3.90;;;11.40;99.90;;;;;;5089047;28;20561;-61
2021/05/31 05:37:10;;;;;;;3.90;3.57;;;11.50;99.90;;;;;;5083794;28;20196;-52
2021/05/31 05:50:07;;;;;;;4.47;4.07;;;12.00;99.90;;;;;;5083026;28;20178;-60
2021/05/31 05:52:33;;;;;;;4.50;4.10;;;12.10;99.90;;;;;;5095101;28;20194;-59
2021/05/31 05:54:58;;;;;;;5.50;4.07;;;12.20;99.90;;;;;;5095244;28;20202;-61
2021/05/31 05:57:24;;;;;;;5.00;3.63;;;12.30;99.90;;;;;;5095364;28;20194;-61
2021/05/31 05:59:49;;;;;;;4.20;3.70;;;12.30;99.90;;;;;;5093723;28;20234;-58
2021/05/31 06:02:15;;;;;;;4.30;3.90;;;12.40;99.90;;;;;;5093601;28;20249;-55
2021/05/31 06:04:41;;;;;;;4.67;3.77;;;12.50;99.90;;;;;;5094345;28;20188;-50
2021/05/31 06:07:07;;;;;;;4.07;3.67;;;12.60;99.90;;;;;;5094481;28;20204;-57
2021/05/31 06:09:32;;;;;;;4.20;3.80;;;12.70;99.90;;;;;;5094157;28;20174;-57
2021/05/31 06:11:58;;;;;;;5.13;4.17;;;12.80;99.90;;;;;;5094823;28;20701;-55
2021/05/31 06:14:24;;;;;;;4.50;4.00;;;12.80;99.90;;;;;;5095876;28;20197;-53
2021/05/31 06:16:49;;;;;;;4.40;4.00;;;12.90;99.90;;;;;;5093932;28;20213;-52
2021/05/31 06:19:15;;;;;;;4.37;3.97;;;12.90;99.90;;;;;;5094488;28;20172;-57
2021/05/31 06:21:40;;;;;;;4.33;3.93;;;12.90;99.90;;;;;;5093844;28;20166;-55
2021/05/31 06:24:06;;;;;;;4.90;4.50;;;12.80;99.90;;;;;;5094848;28;20177;-59
2021/05/31 06:26:31;;;;;;;5.07;4.27;;;12.80;99.90;;;;;;5095566;28;20650;-57
2021/05/31 06:28:57;;;;;;;4.57;4.17;;;12.80;99.90;;;;;;5095591;28;20182;-54
2021/05/31 06:31:22;;;;;;;5.50;4.33;;;12.80;99.90;;;;;;5094823;28;20186;-61
2021/05/31 06:33:48;;;;;;;4.03;3.73;;;13.00;99.90;;;;;;5094722;28;20202;-55
2021/05/31 06:36:14;;;;;;;4.30;3.90;;;13.10;99.90;;;;;;5095038;28;20197;-55
2021/05/31 06:38:40;;;;;;;5.10;4.30;;;13.20;99.90;;;;;;5095217;28;20191;-52
2021/05/31 06:41:05;;;;;;;4.67;4.27;;;13.40;99.90;;;;;;5093118;28;20260;-51
2021/05/31 06:43:32;;;;;;;4.57;3.80;;;13.40;99.90;;;;;;5095615;28;20198;-53
2021/05/31 06:45:59;;;;;;;4.27;3.87;;;13.50;99.90;;;;;;5095362;28;20186;-60
2021/05/31 06:48:25;;;;;;;4.67;4.10;;;13.40;99.90;;;;;;5094836;28;20323;-60
2021/05/31 06:50:53;;;;;;;4.20;3.80;;;13.30;99.90;;;;;;5094779;28;20205;-50
2021/05/31 06:53:19;;;;;;;3.70;3.40;;;13.30;99.90;;;;;;5094697;28;20194;-50
2021/05/31 06:55:45;;;;;;;3.37;3.07;;;13.50;99.90;;;;;;5095012;28;20617;-50
2021/05/31 06:58:11;;;;;;;4.40;3.40;;;13.70;99.90;;;;;;5094398;28;20655;-58
2021/05/31 07:00:36;;;;;;;4.33;3.50;;;13.90;99.90;;;;;;5094986;28;20182;-58
2021/05/31 07:03:02;;;;;;;3.50;3.20;;;14.10;99.90;;;;;;5094325;28;20220;-56
2021/05/31 07:05:28;;;;;;;3.70;3.40;;;14.20;99.90;;;;;;5094454;28;20171;-57
2021/05/31 07:07:54;;;;;;;4.13;3.60;;;14.40;99.90;;;;;;5094663;28;20199;-51
2021/05/31 07:10:27;;;;;;;3.77;3.47;;;14.40;99.90;;;;;;5094298;28;20241;-60
2021/05/31 07:12:53;;;;;;;3.50;3.20;;;14.30;99.90;;;;;;5094196;28;20164;-50
2021/05/31 07:15:20;;;;;;;3.67;3.37;;;14.00;99.90;;;;;;5094346;28;20179;-58
2021/05/31 07:17:46;;;;;;;4.67;3.13;;;13.90;99.90;;;;;;5094422;28;20199;-57
2021/05/31 07:20:13;;;;;;;3.50;3.20;;;13.90;99.90;;;;;;5094486;28;20183;-55
2021/05/31 07:22:40;;;;;;;4.67;3.37;;;14.00;99.90;;;;;;5094493;28;20178;-60
2021/05/31 07:25:07;;;;;;;3.90;3.23;;;14.10;99.90;;;;;;5094056;28;20183;-54
2021/05/31 07:27:33;;;;;;;3.60;3.30;;;14.30;99.90;;;;;;5093876;28;20201;-50
2021/05/31 07:29:59;;;;;;;2.97;2.67;;;14.50;99.90;;;;;;5094183;28;20181;-57
2021/05/31 07:32:25;;;;;;;3.90;3.50;;;14.60;99.90;;;;;;5094022;28;20184;-59
2021/05/31 07:34:50;;;;;;;4.37;3.40;;;14.70;99.90;;;;;;5094170;28;20536;-52
2021/05/31 07:37:17;;;;;;;3.43;3.13;;;14.80;99.90;;;;;;5093740;28;20212;-59
2021/05/31 07:39:42;;;;;;;2.90;2.70;;;14.80;99.90;;;;;;5093947;28;20188;-57
2021/05/31 07:42:08;;;;;;;4.53;3.50;;;14.90;99.90;;;;;;5093686;28;20173;-52
2021/05/31 07:44:34;;;;;;;3.40;3.10;;;15.10;99.90;;;;;;5093938;28;20197;-58
2021/05/31 07:47:00;;;;;;;4.20;3.77;;;14.90;99.90;;;;;;5093859;28;20201;-57
2021/05/31 07:49:25;;;;;;;3.67;3.23;;;14.90;99.90;;;;;;5094167;28;20548;-60
2021/05/31 07:51:53;;;;;;;3.50;3.20;;;14.90;99.90;;;;;;5094022;28;20193;-61
2021/05/31 07:54:20;;;;;;;3.50;3.20;;;14.90;99.90;;;;;;5097594;28;20565;-60
2021/05/31 07:56:46;;;;;;;4.07;3.03;;;15.20;99.90;;;;;;5097776;28;20198;-57
2021/05/31 07:59:12;;;;;;;3.77;3.47;;;15.50;99.90;;;;;;5098290;28;20208;-62
2021/05/31 08:01:38;;;;;;;3.50;2.90;;;15.60;99.90;;;;;;5097504;28;20290;-60
2021/05/31 08:04:06;;;;;;;3.23;2.90;;;15.70;99.90;;;;;;5098062;28;20202;-60
2021/05/31 08:06:36;;;;;;;5.00;4.00;;;15.80;99.90;;;;;;5097983;28;20665;-51
2021/05/31 08:09:04;;;;;;;2.90;2.70;;;15.70;99.90;;;;;;5097892;28;20178;-57
2021/05/31 08:11:30;;;;;;;2.83;2.60;;;15.80;99.90;;;;;;5096504;28;20272;-56
2021/05/31 08:13:56;;;;;;;3.10;2.80;;;16.00;99.90;;;;;;5097781;28;20296;-60
2021/05/31 08:16:22;;;;;;;2.90;2.70;;;16.10;99.90;;;;;;5096744;28;20248;-60
2021/05/31 08:18:47;;;;;;;3.00;2.80;;;16.10;99.90;;;;;;5097639;28;20170;-61
2021/05/31 08:21:13;;;;;;;3.67;3.37;;;16.30;99.90;;;;;;5097232;28;20203;-61
2021/05/31 08:23:40;;;;;;;2.60;2.40;;;16.50;99.90;;;;;;5097479;28;20227;-53
2021/05/31 08:26:05;;;;;;;2.70;2.50;;;16.50;99.90;;;;;;5097358;28;20170;-61
2021/05/31 08:28:31;;;;;;;2.50;2.23;;;16.60;99.90;;;;;;5097758;28;20182;-61
2021/05/31 08:30:59;;;;;;;2.40;2.20;;;16.70;99.90;;;;;;5097006;28;20182;-58
2021/05/31 08:33:24;;;;;;;2.63;2.20;;;16.80;99.90;;;;;;5097072;28;20193;-52
2021/05/31 08:35:50;;;;;;;2.10;2.00;;;16.80;99.90;;;;;;5097440;28;20179;-61
2021/05/31 08:38:16;;;;;;;2.17;2.07;;;16.90;99.20;;;;;;5096829;28;20542;-60
2021/05/31 08:40:42;;;;;;;3.40;2.30;;;16.90;99.90;;;;;;5097671;28;20227;-58
2021/05/31 08:43:08;;;;;;;2.70;2.30;;;17.00;99.30;;;;;;5097159;28;20176;-52
2021/05/31 08:45:37;;;;;;;2.03;1.93;;;17.10;98.10;;;;;;5097056;28;20312;-54
2021/05/31 08:48:03;;;;;;;2.33;2.13;;;17.10;98.00;;;;;;5096774;28;20203;-52
2021/05/31 08:50:32;;;;;;;2.17;2.00;;;17.10;99.00;;;;;;5096998;28;20180;-54
2021/05/31 08:52:58;;;;;;;2.50;2.00;;;17.30;99.10;;;;;;5096785;28;20179;-54
2021/05/31 08:55:27;;;;;;;2.27;1.80;;;17.50;98.90;;;;;;5097124;28;20176;-55
2021/05/31 08:57:53;;;;;;;2.20;2.00;;;17.60;98.20;;;;;;5096741;28;20190;-60
2021/05/31 09:00:28;;;;;;;2.10;1.87;;;17.60;96.40;;;;;;5096637;28;20175;-57
2021/05/31 09:02:58;;;;;;;2.27;2.03;;;17.50;97.60;;;;;;5096561;28;20152;-55
2021/05/31 09:05:33;;;;;;;2.00;1.80;;;17.50;98.10;;;;;;5095882;28;20204;-52
2021/05/31 09:08:09;;;;;;;1.80;1.70;;;17.80;97.70;;;;;;5096701;28;20197;-56
2021/05/31 09:10:46;;;;;;;2.00;1.90;;;18.00;97.20;;;;;;5096957;28;20184;-50
2021/05/31 09:13:34;;;;;;;2.07;1.83;;;18.10;95.30;;;;;;5096533;28;20189;-58
2021/05/31 09:16:18;;;;;;;2.13;1.80;;;18.30;95.60;;;;;;5096424;28;20161;-52
2021/05/31 09:18:47;;;;;;;1.67;1.53;;;18.30;96.30;;;;;;5096486;28;20556;-62
2021/05/31 09:21:16;;;;;;;1.70;1.60;;;18.20;94.00;;;;;;5096116;28;20184;-51
2021/05/31 09:23:43;;;;;;;1.73;1.50;;;18.00;93.80;;;;;;5096452;28;20242;-57
2021/05/31 09:26:09;;;;;;;1.83;1.73;;;17.80;94.20;;;;;;5096560;28;20174;-57
2021/05/31 09:28:35;;;;;;;1.70;1.60;;;17.70;93.70;;;;;;5096633;28;20174;-51
2021/05/31 09:31:13;;;;;;;1.60;1.50;;;18.10;94.30;;;;;;5095781;28;20182;-62
2021/05/31 09:33:38;;;;;;;1.80;1.70;;;18.40;94.00;;;;;;5090527;28;20221;-54
2021/05/31 09:36:07;;;;;;;1.80;1.70;;;18.50;93.30;;;;;;5084846;28;20221;-62
2021/05/31 09:38:33;;;;;;;1.70;1.60;;;18.60;93.70;;;;;;5076971;28;20194;-55
2021/05/31 09:40:58;;;;;;;1.63;1.53;;;18.80;94.20;;;;;;5095127;28;20553;-60
2021/05/31 09:43:27;;;;;;;1.70;1.60;;;19.10;94.00;;;;;;5088033;28;20544;-60
2021/05/31 09:45:52;;;;;;;1.67;1.57;;;19.30;93.20;;;;;;5095998;28;20186;-55
2021/05/31 09:48:18;;;;;;;1.53;1.43;;;19.50;92.90;;;;;;5095515;28;20205;-54
2021/05/31 09:50:54;;;;;;;1.60;1.50;;;19.90;93.50;;;;;;5096268;28;20186;-61
2021/05/31 09:53:20;;;;;;;1.43;1.33;;;20.30;92.30;;;;;;5095714;28;20204;-61
2021/05/31 09:55:47;;;;;;;1.47;1.37;;;20.50;91.30;;;;;;5096058;28;20250;-60
2021/05/31 09:58:16;;;;;;;2.00;1.20;;;20.50;89.10;;;;;;5096272;28;20209;-58
2021/05/31 10:00:48;;;;;;;1.10;1.10;;;20.20;89.80;;;;;;5095928;28;20178;-52
2021/05/31 10:05:54;;;;;;;1.60;1.50;;;19.80;87.80;;;;;;5096582;28;20173;-60
2021/05/31 10:10:55;;;;;;;2.20;2.00;;;19.80;91.20;;;;;;5075033;28;20208;-60
2021/05/31 10:13:23;;;;;;;2.23;1.80;;;19.90;90.50;;;;;;5074760;28;20674;-59
2021/05/31 10:15:49;;;;;;;1.60;1.50;;;19.70;90.60;;;;;;5073094;28;20221;-58
2021/05/31 10:18:17;;;;;;;1.50;1.30;;;19.60;88.50;;;;;;5074680;28;20203;-60
2021/05/31 10:20:43;;;;;;;1.60;1.50;;;19.50;90.60;;;;;;5074335;28;20248;-55
2021/05/31 10:23:11;;;;;;;1.60;1.50;;;19.50;90.40;;;;;;5074661;28;20250;-56
2021/05/31 10:25:41;;;;;;;1.77;1.53;;;19.30;90.70;;;;;;5074788;28;20623;-57
2021/05/31 10:28:21;;;;;;;1.70;1.60;;;19.10;91.10;;;;;;5089725;28;20565;-62
2021/05/31 10:31:10;;;;;;;1.80;1.70;;;19.20;91.40;;;;;;5092252;28;20173;-60
2021/05/31 10:33:40;;;;;;;1.67;1.57;;;18.80;91.30;;;;;;5095280;28;20212;-59
2021/05/31 10:36:08;;;;;;;1.37;1.27;;;18.80;91.30;;;;;;5094917;28;20231;-60
2021/05/31 10:38:37;;;;;;;1.60;1.50;;;19.00;91.90;;;;;;5094746;28;20192;-51
2021/05/31 10:41:14;;;;;;;1.60;1.50;;;19.30;91.30;;;;;;5094868;28;20166;-58
2021/05/31 10:43:50;;;;;;;1.87;1.77;;;19.50;88.60;;;;;;5095052;28;20190;-55
2021/05/31 10:46:28;;;;;;;2.10;1.90;;;19.60;88.60;;;;;;5094826;28;20275;-57
2021/05/31 10:48:54;;;;;;;1.63;1.53;;;19.80;92.30;;;;;;5094582;28;20644;-61
2021/05/31 10:51:29;;;;;;;2.10;1.90;;;19.80;91.60;;;;;;5094659;28;20174;-59
2021/05/31 10:54:11;;;;;;;2.10;1.90;;;19.60;92.20;;;;;;5093401;28;20212;-62
2021/05/31 10:56:37;;;;;;;2.30;2.10;;;19.10;92.70;;;;;;5094623;28;20216;-57
2021/05/31 10:59:03;;;;;;;2.20;2.10;;;18.80;93.20;;;;;;5093716;28;20170;-55
2021/05/31 11:01:31;;;;;;;2.37;2.20;;;18.60;93.90;;;;;;5094299;28;20197;-57
2021/05/31 11:04:03;;;;;;;2.47;2.20;;;18.50;94.70;;;;;;5094551;28;20184;-59
2021/05/31 11:06:38;;;;;;;2.00;1.77;;;18.30;95.00;;;;;;5094658;28;20202;-59
2021/05/31 11:09:10;;;;;;;2.20;1.90;;;18.40;96.40;;;;;;5094479;28;20628;-57
2021/05/31 11:11:41;;;;;;;2.17;2.07;;;18.60;95.80;;;;;;5094225;28;20182;-59
2021/05/31 11:14:09;;;;;;;1.80;1.70;;;18.70;95.00;;;;;;5092790;28;20696;-58
2021/05/31 11:16:36;;;;;;;2.80;1.90;;;18.90;97.40;;;;;;5092966;28;20712;-55
2021/05/31 11:19:06;;;;;;;1.90;1.80;;;19.30;96.70;;;;;;5093147;28;20172;-61
2021/05/31 11:21:37;;;;;;;2.47;2.10;;;19.60;94.30;;;;;;5058587;28;20193;-58
2021/05/31 11:24:08;;;;;;;2.27;2.00;;;19.60;92.90;;;;;;5088135;28;20636;-54
2021/05/31 11:26:39;;;;;;;2.37;2.03;;;19.80;91.30;;;;;;5090470;28;20649;-54
2021/05/31 11:29:08;;;;;;;3.17;1.90;;;20.10;92.20;;;;;;5094021;28;20241;-55
2021/05/31 11:31:34;;;;;;;3.50;1.87;;;20.20;91.80;;;;;;5093201;28;20174;-58
2021/05/31 11:34:01;;;;;;;1.80;1.63;;;20.30;92.10;;;;;;5093510;28;20193;-49
2021/05/31 11:36:38;;;;;;;1.97;1.87;;;20.50;91.60;;;;;;5093587;28;20189;-51
2021/05/31 11:39:14;;;;;;;1.90;1.80;;;20.20;89.30;;;;;;5091772;28;20185;-50
2021/05/31 11:41:47;;;;;;;1.70;1.60;;;20.00;91.10;;;;;;5092179;28;20169;-59
2021/05/31 11:44:20;;;;;;;1.93;1.80;;;20.00;90.70;;;;;;5093350;28;20174;-50
2021/05/31 11:46:48;;;;;;;1.70;1.60;;;20.00;89.60;;;;;;5093190;28;20242;-51
2021/05/31 11:49:14;;;;;;;1.80;1.70;;;20.20;91.10;;;;;;5093373;28;20173;-58
2021/05/31 11:51:40;;;;;;;2.27;2.07;;;20.20;90.00;;;;;;5093148;28;20170;-54
2021/05/31 11:54:06;;;;;;;2.67;1.90;;;20.10;88.00;;;;;;5093164;28;20535;-59
2021/05/31 11:56:33;;;;;;;1.90;1.80;;;20.20;89.30;;;;;;5093207;28;20205;-57
2021/05/31 11:58:59;;;;;;;2.00;1.90;;;20.40;89.40;;;;;;5088115;28;20182;-52
2021/05/31 12:01:28;;;;;;;2.47;1.67;;;20.40;89.30;;;;;;5089242;28;20200;-61
2021/05/31 12:03:53;;;;;;;2.38;1.90;;;20.70;91.80;;;;;;5088263;28;20699;-55
2021/05/31 12:06:19;;;;;;;1.70;1.60;;;21.00;88.20;;;;;;5091704;28;20208;-50
2021/05/31 12:08:46;;;;;;;2.10;2.00;;;21.50;91.40;;;;;;5083558;28;20189;-58
2021/05/31 12:11:22;;;;;;;1.77;1.67;;;21.60;86.40;;;;;;5089432;28;20234;-58
2021/05/31 12:13:48;;;;;;;1.70;1.60;;;21.50;87.20;;;;;;5091485;28;20710;-59
2021/05/31 12:16:15;;;;;;;1.67;1.58;;;21.50;85.70;;;;;;5093211;28;20177;-56
2021/05/31 12:18:41;;;;;;;2.72;1.55;;;21.60;86.20;;;;;;5092255;27;20190;-58
2021/05/31 12:21:07;;;;;;;1.60;1.50;;;21.90;90.90;;;;;;5093345;28;20235;-50
2021/05/31 12:23:34;;;;;;;2.80;1.75;;;21.80;87.70;;;;;;5092772;28;20177;-56
2021/05/31 12:26:03;;;;;;;2.28;1.70;;;21.80;87.00;;;;;;5093129;28;20181;-60
2021/05/31 12:28:31;;;;;;;1.33;1.23;;;21.70;80.40;;;;;;5093800;28;20176;-52
2021/05/31 12:30:57;;;;;;;1.70;1.60;;;21.60;84.40;;;;;;5093494;28;20181;-58
2021/05/31 12:33:22;;;;;;;1.40;1.30;;;21.90;86.90;;;;;;5093599;28;20213;-50
2021/05/31 12:35:49;;;;;;;1.55;1.45;;;22.00;81.30;;;;;;5087762;28;20193;-53
2021/05/31 12:38:18;;;;;;;1.60;1.50;;;22.10;80.00;;;;;;5092978;28;20241;-58
2021/05/31 12:40:44;;;;;;;1.58;1.45;;;22.00;79.90;;;;;;5095103;28;20174;-55
2021/05/31 12:43:11;;;;;;;1.40;1.30;;;22.00;82.50;;;;;;5097020;28;20177;-59
2021/05/31 12:45:47;;;;;;;1.52;1.42;;;21.90;79.80;;;;;;5095906;28;20162;-57
2021/05/31 12:48:18;;;;;;;1.73;1.30;;;21.80;80.70;;;;;;5095163;28;20206;-61
2021/05/31 12:50:44;;;;;;;1.40;1.30;;;21.90;83.80;;;;;;5097396;28;20181;-57
2021/05/31 12:53:12;;;;;;;1.40;1.30;;;22.30;84.00;;;;;;5095631;28;20170;-51
2021/05/31 12:55:39;;;;;;;1.70;1.40;;;22.60;82.50;;;;;;5097216;28;20161;-59
2021/05/31 12:58:23;;;;;;;1.80;1.58;;;22.30;77.70;;;;;;5097250;28;20198;-51
2021/05/31 13:00:50;;;;;;;1.77;1.67;;;21.90;81.20;;;;;;5097119;28;20197;-53
2021/05/31 13:03:17;;;;;;;1.33;1.23;;;21.20;81.20;;;;;;5096428;28;20529;-52
2021/05/31 13:05:48;;;;;;;1.50;1.40;;;20.50;88.10;;;;;;5096795;28;20627;-60
2021/05/31 13:08:15;;;;;;;1.50;1.40;;;20.60;90.40;;;;;;5096947;28;20202;-58
2021/05/31 13:10:46;;;;;;;1.63;1.52;;;20.80;90.30;;;;;;5095431;28;20195;-52
2021/05/31 13:13:15;;;;;;;1.40;1.30;;;21.10;89.00;;;;;;5095025;28;20177;-59